Time;durP1;ratioP1;P1;durP2;ratioP2;P2;SDS_P1;SDS_P2;PMS_P1;PMS_P2;Temp;Humidity;BMP_temperature;BMP_pressure;BME280_temperature;BME280_humidity;BME280_pressure;Samples;Min_cycle;Max_cycle;Signal;HPM_P1;HPM_P2
2022/06/04 00:00:48;;;;;;;;;16.00;15.60;27.00;99.90;;;;;;4982579;28;8750;-94
2022/06/04 00:03:15;;;;;;;;;18.60;17.00;27.00;99.90;;;;;;4982698;28;8781;-93
2022/06/04 00:05:44;;;;;;;;;16.20;16.20;27.00;99.90;;;;;;4982423;28;8792;-94
2022/06/04 00:08:10;;;;;;;;;19.20;16.40;26.90;99.90;;;;;;4982425;28;8808;-94
2022/06/04 00:16:12;;;;;;;;;15.40;13.00;27.10;99.90;;;;;;4999097;28;8794;-94
2022/06/04 00:18:41;;;;;;;;;18.00;14.60;27.10;99.90;;;;;;4982316;28;8805;-94
2022/06/04 00:21:08;;;;;;;;;14.80;11.00;27.20;99.90;;;;;;4982381;28;8844;-93
2022/06/04 00:23:35;;;;;;;;;16.00;13.60;27.10;99.90;;;;;;4982077;28;8848;-94
2022/06/04 00:26:03;;;;;;;;;14.40;11.40;27.20;99.90;;;;;;4982003;28;8776;-94
2022/06/04 00:28:33;;;;;;;;;11.00;9.60;27.20;99.90;;;;;;4981963;28;8832;-93
2022/06/04 00:30:59;;;;;;;;;13.80;12.00;27.30;99.90;;;;;;4983027;28;8804;-95
2022/06/04 00:33:29;;;;;;;;;10.00;10.00;27.40;99.90;;;;;;4981454;28;8805;-94
2022/06/04 00:35:56;;;;;;;;;12.40;12.00;27.30;99.90;;;;;;4982036;28;8801;-94
2022/06/04 00:38:25;;;;;;;;;11.20;10.40;27.30;99.90;;;;;;4981516;28;8758;-95
2022/06/04 00:41:02;;;;;;;;;13.20;7.40;27.40;99.90;;;;;;4982434;28;8761;-96
2022/06/04 00:43:29;;;;;;;;;9.40;7.40;27.40;99.90;;;;;;4966214;28;8883;-94
2022/06/04 00:46:36;;;;;;;;;7.40;4.00;27.30;99.90;;;;;;4969453;28;8776;-95
2022/06/04 00:49:03;;;;;;;;;10.60;8.40;27.30;99.90;;;;;;4980434;28;8867;-96
2022/06/04 00:51:29;;;;;;;;;11.00;8.40;27.40;99.90;;;;;;4948134;28;8788;-96
2022/06/04 00:53:56;;;;;;;;;11.40;8.00;27.40;99.90;;;;;;4964796;28;8966;-94
2022/06/04 00:56:41;;;;;;;;;12.40;9.40;27.40;99.90;;;;;;4963841;28;8777;-92
2022/06/04 00:59:29;;;;;;;;;7.80;7.80;27.50;99.90;;;;;;4994761;28;8785;-93
2022/06/04 01:02:11;;;;;;;;;11.40;10.00;27.50;99.90;;;;;;5000222;28;9496;-94
2022/06/04 01:04:47;;;;;;;;;9.20;7.60;27.60;99.90;;;;;;5000272;28;8770;-93
2022/06/04 01:07:29;;;;;;;;;12.40;11.40;27.60;99.90;;;;;;4984561;28;8789;-93
2022/06/04 01:10:06;;;;;;;;;14.00;14.00;27.70;99.90;;;;;;4999651;28;8836;-95
2022/06/04 01:12:57;;;;;;;;;10.20;10.20;27.80;99.90;;;;;;4997836;28;8880;-93
2022/06/04 01:15:36;;;;;;;;;13.80;12.00;27.80;99.90;;;;;;4981556;28;9438;-93
2022/06/04 01:18:08;;;;;;;;;13.80;10.40;27.90;99.90;;;;;;4997842;28;8852;-94
2022/06/04 01:20:58;;;;;;;;;16.20;13.20;28.00;99.90;;;;;;4997825;28;8843;-95
2022/06/04 01:24:08;;;;;;;;;12.80;9.60;28.00;99.90;;;;;;4996860;28;8778;-93
2022/06/04 01:27:04;;;;;;;;;10.60;7.60;28.00;99.90;;;;;;4981331;28;8786;-94
2022/06/04 01:29:39;;;;;;;;;9.80;8.20;28.00;99.90;;;;;;4977676;28;8772;-96
2022/06/04 01:32:31;;;;;;;;;9.20;8.20;28.10;99.90;;;;;;4978712;28;8818;-94
2022/06/04 01:35:00;;;;;;;;;12.60;10.60;28.10;99.90;;;;;;4954191;28;9456;-93
2022/06/04 01:37:46;;;;;;;;;12.40;10.60;28.10;99.90;;;;;;4977593;28;8776;-93
2022/06/04 01:42:59;;;;;;;;;10.80;5.80;28.20;99.90;;;;;;4969979;28;8754;-94
2022/06/04 01:45:29;;;;;;;;;5.00;5.00;28.30;99.90;;;;;;4980749;28;8813;-94
2022/06/04 01:47:57;;;;;;;;;9.80;6.80;28.30;99.90;;;;;;4981243;28;9515;-94
2022/06/04 01:50:28;;;;;;;;;9.20;5.40;28.30;99.90;;;;;;4964903;28;8769;-94
2022/06/04 01:52:59;;;;;;;;;10.00;6.40;28.40;99.90;;;;;;4981480;28;8898;-95
2022/06/04 01:55:41;;;;;;;;;11.80;7.00;28.40;99.90;;;;;;4982971;28;8794;-92
2022/06/04 01:58:14;;;;;;;;;6.80;6.40;28.50;99.90;;;;;;4986368;28;8847;-93
2022/06/04 02:00:43;;;;;;;;;12.80;7.60;28.50;99.90;;;;;;4982527;28;8762;-92
2022/06/04 02:03:20;;;;;;;;;5.20;5.20;28.60;99.90;;;;;;4986740;28;8785;-96
2022/06/04 02:05:52;;;;;;;;;4.00;4.00;28.70;99.90;;;;;;4984872;28;8785;-92
2022/06/04 02:08:23;;;;;;;;;5.40;4.60;28.70;99.90;;;;;;4985130;28;8781;-96
2022/06/04 02:10:59;;;;;;;;;6.20;5.20;28.70;99.90;;;;;;4985164;28;8754;-92
2022/06/04 02:13:25;;;;;;;;;4.00;3.40;28.80;99.90;;;;;;4965546;28;8855;-93
2022/06/04 02:15:56;;;;;;;;;4.00;4.00;28.70;99.90;;;;;;4965681;28;8930;-93
2022/06/04 02:18:23;;;;;;;;;7.00;5.00;28.80;99.90;;;;;;4964636;28;9494;-94
2022/06/04 02:20:50;;;;;;;;;5.80;5.00;28.90;99.90;;;;;;4964828;28;8776;-94
2022/06/04 02:23:20;;;;;;;;;5.80;3.00;28.90;99.90;;;;;;4964868;28;8807;-94
2022/06/04 02:25:46;;;;;;;;;5.60;3.60;29.00;99.90;;;;;;4964928;28;8781;-93
2022/06/04 02:28:16;;;;;;;;;6.80;6.20;29.00;99.90;;;;;;4973094;28;8834;-93
2022/06/04 02:30:55;;;;;;;;;5.40;4.80;29.20;99.90;;;;;;4968184;28;8762;-93
2022/06/04 02:33:33;;;;;;;;;4.20;4.20;29.10;99.90;;;;;;5001325;28;8863;-94
2022/06/04 02:36:20;;;;;;;;;4.60;4.20;28.90;99.90;;;;;;4985521;28;8788;-94
2022/06/04 02:38:57;;;;;;;;;4.00;1.20;29.00;99.90;;;;;;5000068;28;8777;-94
2022/06/04 02:41:32;;;;;;;;;5.60;4.60;29.20;99.90;;;;;;4968419;28;8777;-94
2022/06/04 02:44:51;;;;;;;;;6.60;4.60;29.30;99.90;;;;;;4965087;28;8760;-92
2022/06/04 02:47:24;;;;;;;;;3.40;3.40;29.40;99.90;;;;;;4956836;28;8819;-91
2022/06/04 02:50:01;;;;;;;;;3.80;3.80;29.30;99.90;;;;;;4964646;28;8792;-93
2022/06/04 02:52:28;;;;;;;;;6.20;4.20;29.40;99.90;;;;;;4964715;28;8772;-93
2022/06/04 02:55:21;;;;;;;;;4.60;3.80;29.50;99.90;;;;;;4965135;28;8780;-94
2022/06/04 02:57:49;;;;;;;;;5.20;3.80;29.40;99.90;;;;;;4981216;28;8804;-93
2022/06/04 03:00:20;;;;;;;;;4.40;4.40;29.30;99.90;;;;;;4983924;28;8808;-91
2022/06/04 03:02:47;;;;;;;;;3.40;3.20;29.40;99.90;;;;;;4983678;28;8762;-94
2022/06/04 03:05:16;;;;;;;;;6.00;4.80;29.50;99.90;;;;;;4983560;28;8766;-94
2022/06/04 03:07:46;;;;;;;;;4.00;3.80;29.60;99.90;;;;;;4983779;28;8774;-93
2022/06/04 03:10:17;;;;;;;;;9.40;4.80;29.50;99.90;;;;;;4984138;28;8785;-93
2022/06/04 03:12:43;;;;;;;;;4.00;4.00;29.40;99.90;;;;;;4982991;28;8773;-94
2022/06/04 03:15:11;;;;;;;;;5.20;4.60;29.50;99.90;;;;;;4983310;28;8824;-92
2022/06/04 03:17:43;;;;;;;;;9.00;3.80;29.50;99.90;;;;;;4983266;28;8774;-94
2022/06/04 03:20:11;;;;;;;;;4.00;4.00;29.50;99.90;;;;;;4983984;28;8772;-94
2022/06/04 03:22:38;;;;;;;;;5.00;4.00;29.80;99.90;;;;;;4983057;28;8848;-92
2022/06/04 03:25:05;;;;;;;;;5.60;3.00;30.00;99.90;;;;;;4983977;28;8774;-92
2022/06/04 03:27:31;;;;;;;;;4.60;3.00;29.80;99.90;;;;;;4966611;28;8789;-92
2022/06/04 03:29:58;;;;;;;;;4.60;4.00;30.00;99.90;;;;;;4967019;28;8817;-92
2022/06/04 03:32:24;;;;;;;;;8.00;6.00;29.90;99.90;;;;;;4982871;28;8836;-93
2022/06/04 03:34:51;;;;;;;;;4.80;2.20;29.80;99.90;;;;;;4983003;28;8823;-93
2022/06/04 03:37:18;;;;;;;;;5.00;4.00;30.10;99.90;;;;;;4983593;28;8785;-91
2022/06/04 03:39:44;;;;;;;;;5.20;5.20;29.90;99.90;;;;;;4982956;28;8898;-93
2022/06/04 03:42:11;;;;;;;;;5.60;4.00;29.80;99.90;;;;;;4983117;28;8766;-93
2022/06/04 03:44:40;;;;;;;;;8.00;6.40;29.90;99.90;;;;;;4982469;28;8833;-94
2022/06/04 03:47:06;;;;;;;;;11.60;8.00;30.10;99.90;;;;;;4967587;28;8781;-96
2022/06/04 03:49:39;;;;;;;;;6.00;6.00;30.20;99.90;;;;;;4982524;28;8794;-95
2022/06/04 03:52:06;;;;;;;;;8.00;6.00;30.10;99.90;;;;;;4984352;28;8802;-95
2022/06/04 04:00:06;;;;;;;;;8.60;6.60;30.10;99.90;;;;;;4966861;28;8773;-93
2022/06/04 04:02:34;;;;;;;;;3.80;3.80;30.30;99.90;;;;;;4948055;28;8954;-93
2022/06/04 04:05:00;;;;;;;;;7.40;5.60;30.30;99.90;;;;;;4963975;28;8772;-95
2022/06/04 04:07:27;;;;;;;;;8.20;6.40;30.40;99.90;;;;;;4964517;28;8776;-94
2022/06/04 04:09:53;;;;;;;;;4.20;3.80;30.50;99.90;;;;;;4964499;28;8922;-94
2022/06/04 04:12:21;;;;;;;;;4.60;3.60;30.40;99.90;;;;;;4963973;28;8772;-95
2022/06/04 04:14:47;;;;;;;;;7.00;4.40;30.60;99.90;;;;;;4979950;28;8784;-96
2022/06/04 04:17:14;;;;;;;;;3.20;3.20;30.70;99.90;;;;;;4980120;28;8786;-91
2022/06/04 04:19:41;;;;;;;;;6.00;4.60;30.70;99.90;;;;;;4980405;28;8784;-92
2022/06/04 04:22:10;;;;;;;;;4.60;4.60;30.50;99.90;;;;;;4980850;28;8791;-94
2022/06/04 04:24:39;;;;;;;;;4.00;4.00;30.50;99.90;;;;;;4978566;28;8805;-96
2022/06/04 04:27:06;;;;;;;;;4.60;4.60;30.60;99.90;;;;;;4978579;28;8795;-95
2022/06/04 04:29:32;;;;;;;;;4.00;4.00;30.60;99.90;;;;;;4982133;28;8805;-93
2022/06/04 04:31:59;;;;;;;;;3.80;2.80;30.80;99.90;;;;;;4982298;28;8781;-96
2022/06/04 04:34:26;;;;;;;;;5.60;4.40;30.80;99.90;;;;;;4982367;28;8801;-93
2022/06/04 04:36:52;;;;;;;;;6.40;4.80;30.70;99.90;;;;;;4983200;28;8844;-94
2022/06/04 04:39:19;;;;;;;;;4.60;3.40;30.90;99.90;;;;;;4982274;28;8789;-94
2022/06/04 04:41:45;;;;;;;;;4.00;3.00;30.80;99.90;;;;;;4983368;28;8885;-96
2022/06/04 04:44:12;;;;;;;;;4.80;3.00;30.90;99.90;;;;;;4983423;28;8773;-95
2022/06/04 04:46:38;;;;;;;;;2.80;2.80;31.00;99.90;;;;;;4982145;28;9209;-95
2022/06/04 04:49:05;;;;;;;;;3.20;2.20;31.00;99.90;;;;;;4983219;28;8812;-95
2022/06/04 04:51:34;;;;;;;;;4.00;3.00;31.00;99.90;;;;;;4982537;28;8884;-95
2022/06/04 04:54:01;;;;;;;;;4.60;3.00;31.10;99.90;;;;;;4983078;28;8758;-93
2022/06/04 04:56:27;;;;;;;;;2.20;2.20;31.10;99.90;;;;;;4983816;28;8766;-94
2022/06/04 04:58:54;;;;;;;;;1.60;1.60;31.10;99.90;;;;;;4986443;28;8785;-93
2022/06/04 05:01:23;;;;;;;;;6.80;4.00;31.20;99.90;;;;;;4985562;28;8840;-93
2022/06/04 05:03:50;;;;;;;;;6.00;3.40;31.10;99.90;;;;;;4978418;28;8789;-94
2022/06/04 05:06:17;;;;;;;;;3.40;2.40;31.30;99.90;;;;;;4985821;28;8820;-94
2022/06/04 05:08:44;;;;;;;;;5.20;3.00;31.40;99.90;;;;;;4983192;28;8859;-93
2022/06/04 05:11:18;;;;;;;;;3.60;3.00;31.40;99.60;;;;;;4982968;28;8769;-93
2022/06/04 05:13:49;;;;;;;;;4.00;4.00;31.30;99.60;;;;;;4982775;28;8807;-94
2022/06/04 05:16:17;;;;;;;;;5.00;3.40;31.20;99.90;;;;;;4982923;28;8804;-95
2022/06/04 05:18:44;;;;;;;;;4.00;3.00;31.30;99.90;;;;;;4965888;28;9461;-94
2022/06/04 05:21:28;;;;;;;;;3.80;2.60;31.40;99.90;;;;;;4981435;28;8804;-95
2022/06/04 05:23:55;;;;;;;;;6.00;4.60;31.30;99.90;;;;;;4981403;28;8786;-96
2022/06/04 05:26:23;;;;;;;;;7.40;5.20;31.40;99.90;;;;;;4981130;28;8793;-95
2022/06/04 05:28:50;;;;;;;;;4.40;3.40;31.30;99.90;;;;;;4981511;28;8780;-96
2022/06/04 05:31:17;;;;;;;;;6.80;3.80;31.20;99.90;;;;;;4981544;28;8805;-93
2022/06/04 05:33:43;;;;;;;;;5.20;5.20;31.30;99.90;;;;;;4981407;28;8851;-94
2022/06/04 05:36:10;;;;;;;;;3.20;3.00;31.70;99.90;;;;;;4965432;28;8774;-94
2022/06/04 05:38:37;;;;;;;;;5.20;3.80;31.80;99.10;;;;;;4981069;28;8860;-93
2022/06/04 05:41:06;;;;;;;;;3.00;3.00;31.70;99.20;;;;;;4981059;28;8762;-95
2022/06/04 05:43:33;;;;;;;;;2.40;2.20;31.70;99.50;;;;;;4980735;28;8786;-96
2022/06/04 05:46:04;;;;;;;;;4.00;4.00;31.70;99.50;;;;;;4981771;28;8862;-95
2022/06/04 05:48:31;;;;;;;;;5.00;2.00;31.90;99.70;;;;;;4980639;28;8809;-95
2022/06/04 05:50:58;;;;;;;;;6.00;5.40;31.90;99.90;;;;;;4964716;28;8789;-94
2022/06/04 05:53:25;;;;;;;;;4.80;4.60;32.00;99.90;;;;;;4980618;28;8801;-95
2022/06/04 05:55:52;;;;;;;;;6.00;4.60;32.00;99.70;;;;;;4981143;28;8758;-93
2022/06/04 05:58:18;;;;;;;;;4.00;4.00;31.70;99.60;;;;;;4981379;28;8762;-93
2022/06/04 06:00:45;;;;;;;;;9.20;5.00;31.90;99.50;;;;;;4964508;28;8824;-92
2022/06/04 06:03:11;;;;;;;;;4.80;4.80;31.80;99.90;;;;;;4980877;28;8778;-94
2022/06/04 06:05:42;;;;;;;;;5.00;3.80;31.80;99.90;;;;;;4980354;28;8790;-94
2022/06/04 06:08:10;;;;;;;;;4.60;4.00;31.80;99.90;;;;;;4980462;28;8786;-93
2022/06/04 06:10:44;;;;;;;;;5.00;4.40;31.80;99.90;;;;;;4982249;28;8806;-93
2022/06/04 06:13:11;;;;;;;;;5.00;4.00;31.90;98.90;;;;;;4981187;28;8831;-93
2022/06/04 06:15:37;;;;;;;;;7.60;3.80;32.20;99.10;;;;;;4981024;28;8797;-93
2022/06/04 06:18:05;;;;;;;;;6.40;3.00;32.00;98.70;;;;;;4980215;28;8794;-94
2022/06/04 06:20:41;;;;;;;;;3.20;3.20;31.80;99.40;;;;;;4980410;28;9430;-93
2022/06/04 06:23:09;;;;;;;;;4.20;3.00;31.90;99.80;;;;;;4980925;28;8892;-93
2022/06/04 06:25:36;;;;;;;;;4.40;3.00;31.80;98.90;;;;;;4982681;28;8824;-94
2022/06/04 06:28:03;;;;;;;;;1.60;1.60;31.80;99.00;;;;;;4968467;28;8799;-93
2022/06/04 06:30:29;;;;;;;;;6.00;5.00;31.70;99.90;;;;;;4967601;28;8767;-93
2022/06/04 06:32:58;;;;;;;;;6.60;4.60;31.50;99.90;;;;;;4983860;28;8878;-93
2022/06/04 06:35:24;;;;;;;;;3.40;3.40;31.40;99.90;;;;;;4983658;28;8780;-94
2022/06/04 06:37:52;;;;;;;;;5.80;4.80;31.50;99.90;;;;;;4968160;28;8751;-95
2022/06/04 06:40:19;;;;;;;;;4.20;4.00;31.50;99.90;;;;;;4969385;28;8798;-96
2022/06/04 06:42:45;;;;;;;;;4.00;4.00;31.70;99.20;;;;;;4968383;28;8776;-94
2022/06/04 06:45:12;;;;;;;;;3.40;3.00;31.80;99.30;;;;;;4968909;28;8763;-93
2022/06/04 06:47:43;;;;;;;;;6.00;3.80;31.90;99.10;;;;;;4985372;28;8814;-94
2022/06/04 06:50:09;;;;;;;;;3.80;3.40;32.00;99.70;;;;;;4973589;28;8881;-94
2022/06/04 06:52:36;;;;;;;;;6.80;5.00;32.00;99.00;;;;;;4989434;28;8763;-93
2022/06/04 06:55:02;;;;;;;;;4.40;3.40;32.00;99.80;;;;;;4975263;28;8806;-93
2022/06/04 06:57:29;;;;;;;;;3.80;3.20;32.00;99.80;;;;;;4973712;28;8837;-93
2022/06/04 06:59:56;;;;;;;;;7.20;5.20;32.00;99.90;;;;;;4973206;28;8759;-93
2022/06/04 07:02:23;;;;;;;;;6.00;6.00;32.10;99.30;;;;;;4972438;28;8763;-94
2022/06/04 07:04:49;;;;;;;;;3.40;3.20;32.30;98.60;;;;;;4987893;28;8751;-93
2022/06/04 07:07:19;;;;;;;;;4.20;4.20;32.70;98.70;;;;;;4973004;28;8941;-94
2022/06/04 07:09:48;;;;;;;;;6.60;4.80;32.70;98.80;;;;;;4974179;28;8801;-96
2022/06/04 07:12:15;;;;;;;;;5.60;2.20;33.00;98.10;;;;;;4972325;28;8763;-94
2022/06/04 07:14:41;;;;;;;;;6.40;4.00;32.90;97.30;;;;;;4987784;28;8778;-96
2022/06/04 07:17:08;;;;;;;;;3.20;2.20;32.70;98.00;;;;;;4970933;28;8759;-95
2022/06/04 07:19:35;;;;;;;;;6.80;3.20;32.90;97.80;;;;;;4970150;28;9475;-92
2022/06/04 07:22:01;;;;;;;;;4.60;4.00;32.80;97.80;;;;;;5003284;28;8752;-91
2022/06/04 07:24:28;;;;;;;;;4.60;4.00;32.70;98.00;;;;;;4987518;28;8767;-94
2022/06/04 07:26:55;;;;;;;;;2.20;2.20;33.10;97.70;;;;;;4966927;28;8781;-92
2022/06/04 07:29:21;;;;;;;;;5.80;4.00;33.20;98.00;;;;;;4979401;28;8800;-94
2022/06/04 07:31:48;;;;;;;;;4.00;1.00;33.00;97.80;;;;;;4948260;28;8783;-93
2022/06/04 07:34:15;;;;;;;;;4.00;3.20;32.90;98.10;;;;;;4948907;28;8776;-93
2022/06/04 07:36:45;;;;;;;;;5.00;5.00;32.90;98.20;;;;;;4963908;28;8783;-92
2022/06/04 07:39:14;;;;;;;;;4.00;4.00;32.80;98.20;;;;;;4963768;28;8784;-93
2022/06/04 07:41:43;;;;;;;;;2.60;2.60;32.40;98.50;;;;;;4947611;28;8779;-92
2022/06/04 07:44:10;;;;;;;;;6.00;3.00;32.50;97.30;;;;;;4966298;23;8793;-74
2022/06/04 07:46:37;;;;;;;;;4.60;3.60;32.80;97.70;;;;;;4940419;28;8805;-67
2022/06/04 07:49:05;;;;;;;;;3.80;3.80;32.60;97.80;;;;;;4941266;29;8816;-74
2022/06/04 07:51:33;;;;;;;;;3.00;3.00;32.60;97.40;;;;;;4940386;29;8792;-64
2022/06/04 07:54:00;;;;;;;;;3.40;3.40;32.40;97.90;;;;;;4941597;29;8803;-73
2022/06/04 07:56:26;;;;;;;;;4.00;3.40;32.20;98.90;;;;;;4941627;29;8854;-75
2022/06/04 07:58:53;;;;;;;;;3.60;2.00;32.30;98.50;;;;;;4953263;28;8775;-73
2022/06/04 08:01:20;;;;;;;;;6.40;4.80;32.30;99.20;;;;;;4961297;28;8767;-70
2022/06/04 08:03:48;;;;;;;;;7.40;4.80;32.50;98.50;;;;;;4975411;28;8770;-73
2022/06/04 08:06:17;;;;;;;;;5.40;4.60;32.30;98.60;;;;;;4960720;28;8803;-74
2022/06/04 08:08:44;;;;;;;;;6.40;4.00;32.20;99.30;;;;;;4975023;28;8809;-57
2022/06/04 08:13:56;;;;;;;;;3.80;3.80;32.40;99.10;;;;;;4972906;28;8798;-69
2022/06/04 08:16:22;;;;;;;;;6.20;3.00;32.50;98.90;;;;;;4961193;28;8881;-73
2022/06/04 08:18:49;;;;;;;;;5.00;3.40;32.60;99.00;;;;;;4960595;28;8787;-74
2022/06/04 08:21:16;;;;;;;;;3.00;3.00;32.60;98.20;;;;;;4960517;28;8751;-70
2022/06/04 08:23:44;;;;;;;;;6.80;4.00;32.60;98.10;;;;;;4960230;28;8767;-64
2022/06/04 08:26:11;;;;;;;;;4.60;4.60;32.60;97.20;;;;;;4961094;28;8790;-75
2022/06/04 08:28:37;;;;;;;;;4.40;4.20;32.50;97.80;;;;;;4960475;28;8814;-66
2022/06/04 08:31:07;;;;;;;;;3.00;3.00;32.50;98.20;;;;;;4961281;28;9470;-73
2022/06/04 08:33:34;;;;;;;;;5.80;4.20;32.40;98.30;;;;;;4960234;28;8813;-59
2022/06/04 08:36:01;;;;;;;;;4.80;4.60;32.60;98.50;;;;;;4975681;28;8806;-74
2022/06/04 08:38:27;;;;;;;;;7.00;5.40;32.60;99.00;;;;;;4960137;28;8794;-74
2022/06/04 08:40:57;;;;;;;;;5.40;5.40;32.50;98.90;;;;;;4960037;28;8775;-52
2022/06/04 08:43:33;;;;;;;;;6.60;5.20;32.60;99.00;;;;;;4969894;28;8932;-63
2022/06/04 08:46:02;;;;;;;;;5.40;5.00;32.60;98.90;;;;;;4979288;28;9464;-70
2022/06/04 08:48:33;;;;;;;;;5.00;3.00;32.10;99.90;;;;;;4962037;28;8804;-74
2022/06/04 08:50:59;;;;;;;;;5.60;3.80;31.80;99.90;;;;;;4979179;28;8782;-60
2022/06/04 08:53:27;;;;;;;;;2.40;2.00;31.60;99.90;;;;;;4978916;28;8835;-72
2022/06/04 08:59:00;;;;;;;;;3.20;1.60;31.10;99.90;;;;;;4964475;28;8882;-57
2022/06/04 09:01:53;;;;;;;;;4.40;4.00;30.80;99.90;;;;;;4979007;28;8752;-73
2022/06/04 09:04:37;;;;;;;;;3.60;1.20;30.80;99.90;;;;;;4976818;28;8798;-65
2022/06/04 09:07:28;;;;;;;;;2.20;2.20;30.50;99.90;;;;;;4979429;28;8776;-74
2022/06/04 09:10:05;;;;;;;;;7.20;5.00;30.60;99.90;;;;;;4975819;28;8811;-72
2022/06/04 09:12:38;;;;;;;;;5.80;3.20;30.50;99.90;;;;;;4977352;28;8791;-74
2022/06/04 09:15:14;;;;;;;;;6.00;4.60;30.20;99.90;;;;;;4945796;28;8787;-61
2022/06/04 09:17:45;;;;;;;;;1.80;1.80;30.20;99.90;;;;;;4978511;28;8789;-71
2022/06/04 09:20:39;;;;;;;;;3.60;2.00;30.20;99.90;;;;;;4961414;28;9420;-71
2022/06/04 09:23:39;;;;;;;;;5.00;3.80;30.20;99.90;;;;;;4954537;28;8767;-54
2022/06/04 09:26:14;;;;;;;;;6.00;4.40;30.30;99.90;;;;;;4963803;28;8870;-60
2022/06/04 09:28:56;;;;;;;;;3.60;2.60;30.30;99.90;;;;;;4960847;28;8811;-60
2022/06/04 09:31:46;;;;;;;;;3.80;2.00;30.20;99.90;;;;;;4979309;28;8946;-72
2022/06/04 09:34:15;;;;;;;;;4.60;3.60;30.00;99.90;;;;;;4978993;28;8760;-65
2022/06/04 09:36:44;;;;;;;;;4.00;3.80;30.20;99.90;;;;;;4977113;28;8786;-74
2022/06/04 09:39:38;;;;;;;;;5.00;5.00;30.10;99.90;;;;;;4976897;28;8802;-74
2022/06/04 09:42:14;;;;;;;;;2.60;2.60;30.20;99.90;;;;;;4975480;28;8782;-72
2022/06/04 09:44:58;;;;;;;;;5.20;4.00;30.20;99.90;;;;;;4934857;29;8768;-69
2022/06/04 09:47:34;;;;;;;;;5.80;4.00;30.20;99.90;;;;;;4920828;29;8783;-71
2022/06/04 09:50:03;;;;;;;;;7.00;3.60;30.00;99.90;;;;;;4919852;29;8768;-62
2022/06/04 09:53:00;;;;;;;;;2.80;2.00;30.00;99.90;;;;;;4920770;29;8784;-66
2022/06/04 09:55:27;;;;;;;;;3.60;2.00;29.70;99.90;;;;;;4920080;29;8803;-74
2022/06/04 09:58:02;;;;;;;;;4.60;3.00;29.50;99.90;;;;;;4908403;29;8877;-71
2022/06/04 10:00:33;;;;;;;;;4.80;4.20;29.70;99.90;;;;;;4939832;28;8844;-62
2022/06/04 10:03:04;;;;;;;;;3.00;3.00;29.50;99.90;;;;;;4938805;28;9533;-64
2022/06/04 10:05:32;;;;;;;;;4.40;4.00;29.80;99.90;;;;;;4939620;28;8778;-71
2022/06/04 10:07:58;;;;;;;;;1.20;1.20;29.70;99.90;;;;;;4954612;28;8769;-70
2022/06/04 10:10:34;;;;;;;;;2.00;0.00;29.80;99.90;;;;;;4954342;28;8782;-65
2022/06/04 10:16:25;;;;;;;;;1.00;1.00;29.60;99.90;;;;;;4939727;28;9457;-71
2022/06/04 10:19:13;;;;;;;;;0.20;0.00;29.80;99.90;;;;;;4940243;29;8766;-70
2022/06/04 10:21:41;;;;;;;;;0.00;0.00;29.70;99.90;;;;;;4940546;28;8797;-70
2022/06/04 10:24:31;;;;;;;;;3.80;1.00;29.70;99.90;;;;;;4958079;28;8785;-70
2022/06/04 10:27:16;;;;;;;;;3.40;2.00;29.80;99.90;;;;;;4943312;28;8792;-70
2022/06/04 10:30:02;;;;;;;;;1.20;1.00;29.70;99.90;;;;;;4943006;28;8809;-70
2022/06/04 10:32:55;;;;;;;;;3.60;3.00;29.70;99.90;;;;;;4957801;28;8816;-70
2022/06/04 10:35:44;;;;;;;;;1.40;0.00;29.60;99.90;;;;;;4942952;28;8793;-70
2022/06/04 10:38:32;;;;;;;;;0.60;0.00;29.40;99.90;;;;;;4941884;28;9067;-69
2022/06/04 10:41:05;;;;;;;;;3.40;0.00;29.40;99.90;;;;;;4943013;28;8807;-61
2022/06/04 10:43:42;;;;;;;;;1.80;1.80;29.40;99.90;;;;;;4960591;28;8834;-70
2022/06/04 10:46:33;;;;;;;;;1.80;1.80;29.40;99.90;;;;;;4949585;28;8785;-72
2022/06/04 10:49:14;;;;;;;;;1.40;1.40;29.40;99.90;;;;;;4964488;28;8803;-68
2022/06/04 10:51:51;;;;;;;;;2.40;1.80;29.40;99.90;;;;;;4949087;28;8768;-73
2022/06/04 10:54:45;;;;;;;;;3.20;1.60;29.30;99.90;;;;;;4981035;28;8751;-72
2022/06/04 10:57:25;;;;;;;;;8.00;6.20;29.30;99.90;;;;;;4981261;28;8767;-68
2022/06/04 10:59:56;;;;;;;;;14.40;11.20;29.20;99.90;;;;;;4961772;28;8872;-56
2022/06/04 11:02:35;;;;;;;;;9.40;8.60;29.30;99.90;;;;;;4961523;28;9974;-67
2022/06/04 11:05:05;;;;;;;;;14.40;14.20;29.20;99.90;;;;;;4961711;28;8778;-64
2022/06/04 11:07:57;;;;;;;;;8.40;6.40;29.00;99.90;;;;;;4944678;28;8863;-59
2022/06/04 11:10:25;;;;;;;;;5.60;3.20;29.10;99.90;;;;;;4915494;28;8921;-59
2022/06/04 11:13:30;;;;;;;;;6.80;4.40;29.10;99.90;;;;;;4948280;28;8839;-74
2022/06/04 11:16:15;;;;;;;;;6.60;4.00;29.10;99.90;;;;;;4981329;28;8748;-58
2022/06/04 11:18:56;;;;;;;;;3.40;1.00;29.20;99.90;;;;;;4980596;28;8802;-72
2022/06/04 11:21:36;;;;;;;;;5.60;5.60;29.00;99.90;;;;;;4980544;28;8866;-69
2022/06/04 11:24:18;;;;;;;;;6.40;2.80;29.00;99.90;;;;;;4979594;28;9424;-61
2022/06/04 11:26:52;;;;;;;;;4.20;3.00;28.90;99.90;;;;;;4979668;28;8776;-65
2022/06/04 11:29:18;;;;;;;;;13.20;11.00;28.80;99.90;;;;;;4979186;28;8798;-69
2022/06/04 11:32:03;;;;;;;;;12.80;9.20;28.80;99.90;;;;;;4953359;28;8811;-61
2022/06/04 11:34:55;;;;;;;;;11.40;9.80;28.80;99.90;;;;;;4978836;28;8868;-65
2022/06/04 11:37:52;;;;;;;;;9.00;6.20;28.90;99.90;;;;;;4981068;28;8756;-71
2022/06/04 11:40:34;;;;;;;;;10.00;6.60;29.00;99.90;;;;;;4963402;28;8764;-57
2022/06/04 11:43:28;;;;;;;;;4.60;4.00;28.90;99.90;;;;;;4959549;28;10189;-61
2022/06/04 11:46:20;;;;;;;;;8.20;8.20;28.90;99.90;;;;;;4961910;28;8821;-74
2022/06/04 11:48:52;;;;;;;;;6.60;5.00;29.00;99.90;;;;;;4960818;28;8819;-71
2022/06/04 11:51:30;;;;;;;;;7.20;6.60;28.80;99.90;;;;;;4960540;28;8791;-54
2022/06/04 11:54:23;;;;;;;;;7.60;6.20;28.80;99.90;;;;;;4960966;28;9423;-59
2022/06/04 11:56:56;;;;;;;;;7.00;6.20;28.90;99.90;;;;;;4943817;28;8790;-59
2022/06/04 11:59:40;;;;;;;;;15.60;12.00;28.80;99.90;;;;;;4960342;28;8771;-67
2022/06/04 12:02:20;;;;;;;;;17.25;15.00;28.80;99.90;;;;;;4961015;28;8762;-67
2022/06/04 12:05:18;;;;;;;;;13.20;11.60;28.60;99.90;;;;;;4960784;28;8754;-75
2022/06/04 12:07:46;;;;;;;;;17.80;11.60;28.60;99.90;;;;;;4975276;28;8813;-72
2022/06/04 12:10:21;;;;;;;;;14.60;10.40;28.70;99.90;;;;;;4976252;28;8798;-57
2022/06/04 12:13:09;;;;;;;;;17.80;13.00;28.90;99.90;;;;;;4975061;28;8791;-71
2022/06/04 12:15:40;;;;;;;;;14.60;8.00;28.70;99.90;;;;;;4974869;28;8798;-74
2022/06/04 12:18:27;;;;;;;;;9.00;9.00;28.70;99.90;;;;;;4960595;28;8804;-71
2022/06/04 12:26:38;;;;;;;;;8.60;7.60;28.50;99.90;;;;;;4972575;28;8771;-70
2022/06/04 12:29:33;;;;;;;;;7.60;7.00;28.50;99.90;;;;;;4959562;28;8794;-70
2022/06/04 12:32:19;;;;;;;;;8.00;7.40;28.30;99.90;;;;;;4960237;28;8785;-71
2022/06/04 12:34:45;;;;;;;;;7.20;5.00;28.40;99.90;;;;;;4975431;28;8763;-74
2022/06/04 12:37:23;;;;;;;;;7.00;6.60;28.50;99.90;;;;;;4959737;28;8783;-67
2022/06/04 12:39:50;;;;;;;;;5.60;5.60;28.50;99.90;;;;;;4974898;28;8752;-72
2022/06/04 12:42:20;;;;;;;;;13.00;10.40;28.40;99.90;;;;;;4974353;28;8896;-72
2022/06/04 12:45:00;;;;;;;;;12.20;10.40;28.40;99.90;;;;;;4977849;28;8768;-70
2022/06/04 12:47:35;;;;;;;;;5.00;4.20;28.30;99.90;;;;;;4961610;28;8881;-71
2022/06/04 12:50:02;;;;;;;;;9.40;7.40;28.30;99.90;;;;;;4977915;28;8906;-70
2022/06/04 12:52:39;;;;;;;;;8.20;7.00;28.40;99.90;;;;;;4961525;28;9474;-75
2022/06/04 12:55:16;;;;;;;;;9.60;6.00;28.30;99.90;;;;;;4978065;28;8801;-71
2022/06/04 12:57:45;;;;;;;;;4.80;3.00;28.20;99.90;;;;;;4977724;28;8869;-72
2022/06/04 13:00:18;;;;;;;;;4.60;2.40;28.10;99.90;;;;;;4961589;28;8759;-72
2022/06/04 13:03:07;;;;;;;;;4.00;3.00;28.10;99.90;;;;;;4978883;28;8813;-71
2022/06/04 13:05:38;;;;;;;;;5.40;4.00;27.90;99.90;;;;;;4978469;28;9427;-73
2022/06/04 13:08:07;;;;;;;;;7.60;5.00;28.10;99.90;;;;;;4961756;28;9104;-71
2022/06/04 13:10:38;;;;;;;;;5.80;4.40;28.10;99.90;;;;;;4978721;28;10191;-75
2022/06/04 13:13:12;;;;;;;;;5.60;5.00;28.20;99.90;;;;;;4962103;28;8760;-75
2022/06/04 13:16:03;;;;;;;;;3.60;3.60;28.00;99.90;;;;;;4977566;28;8787;-66
2022/06/04 13:18:34;;;;;;;;;5.20;5.00;28.10;99.90;;;;;;4978603;28;8865;-73
2022/06/04 13:21:06;;;;;;;;;9.60;6.60;28.10;99.90;;;;;;4976949;28;8791;-75
2022/06/04 13:23:35;;;;;;;;;2.20;2.20;28.20;99.90;;;;;;4978206;28;8772;-70
2022/06/04 13:26:31;;;;;;;;;4.40;3.80;28.10;99.90;;;;;;4977754;28;8763;-69
2022/06/04 13:28:59;;;;;;;;;4.00;3.00;28.10;99.90;;;;;;4978518;28;8803;-75
2022/06/04 13:31:27;;;;;;;;;4.00;4.00;28.10;99.90;;;;;;4978378;28;8795;-71
2022/06/04 13:33:55;;;;;;;;;5.80;4.20;28.00;99.90;;;;;;4979138;28;8763;-64
2022/06/04 13:36:26;;;;;;;;;6.00;4.40;28.00;99.90;;;;;;4977038;28;8783;-72
2022/06/04 13:38:56;;;;;;;;;6.80;5.60;28.00;99.90;;;;;;4978410;28;8858;-73
2022/06/04 13:42:01;;;;;;;;;5.20;5.20;28.10;99.90;;;;;;4961076;28;8794;-64
2022/06/04 13:44:27;;;;;;;;;7.00;6.00;28.00;99.90;;;;;;4977621;28;10036;-72
2022/06/04 13:47:13;;;;;;;;;10.80;6.40;28.10;99.90;;;;;;4978435;28;9448;-70
2022/06/04 13:49:39;;;;;;;;;6.60;4.20;28.10;99.90;;;;;;4978179;28;8913;-71
2022/06/04 13:52:22;;;;;;;;;5.20;4.80;28.10;99.90;;;;;;4979218;28;8840;-72
2022/06/04 13:55:04;;;;;;;;;9.40;6.40;28.10;99.90;;;;;;4978237;28;8783;-67